sensor_id;sensor_type;location;lat;lon;timestamp;temperature;humidity
27848;DHT22;15212;48.830;8.730;2023-05-28T00:01:25;12.60;99.90
27848;DHT22;15212;48.830;8.730;2023-05-28T00:03:53;12.60;99.90
27848;DHT22;15212;48.830;8.730;2023-05-28T00:06:21;12.60;99.90
27848;DHT22;15212;48.830;8.730;2023-05-28T00:08:50;12.60;99.90
27848;DHT22;15212;48.830;8.730;2023-05-28T00:11:18;12.60;99.90
27848;DHT22;15212;48.830;8.730;2023-05-28T00:13:48;12.60;99.90
27848;DHT22;15212;48.830;8.730;2023-05-28T00:16:16;12.60;99.90
27848;DHT22;15212;48.830;8.730;2023-05-28T00:18:44;12.50;99.90
27848;DHT22;15212;48.830;8.730;2023-05-28T00:21:13;12.50;99.90
27848;DHT22;15212;48.830;8.730;2023-05-28T00:23:41;12.50;99.90
27848;DHT22;15212;48.830;8.730;2023-05-28T00:26:10;12.50;99.90
27848;DHT22;15212;48.830;8.730;2023-05-28T00:28:38;12.40;99.90
27848;DHT22;15212;48.830;8.730;2023-05-28T00:31:07;12.40;99.90
27848;DHT22;15212;48.830;8.730;2023-05-28T00:33:35;12.40;99.90
27848;DHT22;15212;48.830;8.730;2023-05-28T00:36:04;12.40;99.90
27848;DHT22;15212;48.830;8.730;2023-05-28T00:38:32;12.40;99.90
27848;DHT22;15212;48.830;8.730;2023-05-28T00:41:00;12.40;99.90
27848;DHT22;15212;48.830;8.730;2023-05-28T00:43:29;12.40;99.90
27848;DHT22;15212;48.830;8.730;2023-05-28T00:46:00;12.40;99.90
27848;DHT22;15212;48.830;8.730;2023-05-28T00:48:30;12.40;99.90
27848;DHT22;15212;48.830;8.730;2023-05-28T00:50:59;12.40;99.90
27848;DHT22;15212;48.830;8.730;2023-05-28T00:53:27;12.40;99.90
27848;DHT22;15212;48.830;8.730;2023-05-28T00:55:56;12.30;99.90
27848;DHT22;15212;48.830;8.730;2023-05-28T00:58:25;12.30;99.90
27848;DHT22;15212;48.830;8.730;2023-05-28T01:00:55;12.20;99.90
27848;DHT22;15212;48.830;8.730;2023-05-28T01:03:24;12.10;99.90
27848;DHT22;15212;48.830;8.730;2023-05-28T01:05:52;12.00;99.90
27848;DHT22;15212;48.830;8.730;2023-05-28T01:08:21;11.90;99.90
27848;DHT22;15212;48.830;8.730;2023-05-28T01:10:49;11.80;99.90
27848;DHT22;15212;48.830;8.730;2023-05-28T01:13:18;11.70;99.90
27848;DHT22;15212;48.830;8.730;2023-05-28T01:15:46;11.60;99.90
27848;DHT22;15212;48.830;8.730;2023-05-28T01:18:14;11.60;99.90
27848;DHT22;15212;48.830;8.730;2023-05-28T01:20:43;11.50;99.90
27848;DHT22;15212;48.830;8.730;2023-05-28T01:23:12;11.50;99.90
27848;DHT22;15212;48.830;8.730;2023-05-28T01:25:44;11.40;99.90
27848;DHT22;15212;48.830;8.730;2023-05-28T01:28:13;11.40;99.90
27848;DHT22;15212;48.830;8.730;2023-05-28T01:30:42;11.30;99.90
27848;DHT22;15212;48.830;8.730;2023-05-28T01:33:10;11.20;99.90
27848;DHT22;15212;48.830;8.730;2023-05-28T01:35:40;11.20;99.90
27848;DHT22;15212;48.830;8.730;2023-05-28T01:38:10;11.20;99.90
27848;DHT22;15212;48.830;8.730;2023-05-28T01:40:43;11.20;99.90
27848;DHT22;15212;48.830;8.730;2023-05-28T01:43:13;11.10;99.90
27848;DHT22;15212;48.830;8.730;2023-05-28T01:45:42;11.10;99.90
27848;DHT22;15212;48.830;8.730;2023-05-28T01:48:11;11.10;99.90
27848;DHT22;15212;48.830;8.730;2023-05-28T01:50:39;11.10;99.90
27848;DHT22;15212;48.830;8.730;2023-05-28T01:53:08;11.10;99.90
27848;DHT22;15212;48.830;8.730;2023-05-28T01:55:36;11.00;99.90
27848;DHT22;15212;48.830;8.730;2023-05-28T01:58:05;11.00;99.90
27848;DHT22;15212;48.830;8.730;2023-05-28T02:00:38;11.00;99.90
27848;DHT22;15212;48.830;8.730;2023-05-28T02:03:07;11.00;99.90
27848;DHT22;15212;48.830;8.730;2023-05-28T02:05:38;11.00;99.90
27848;DHT22;15212;48.830;8.730;2023-05-28T02:08:06;11.00;99.90
27848;DHT22;15212;48.830;8.730;2023-05-28T02:10:35;11.00;99.90
27848;DHT22;15212;48.830;8.730;2023-05-28T02:13:03;11.00;99.90
27848;DHT22;15212;48.830;8.730;2023-05-28T02:15:32;11.00;99.90
27848;DHT22;15212;48.830;8.730;2023-05-28T02:18:00;11.00;99.90
27848;DHT22;15212;48.830;8.730;2023-05-28T02:20:29;11.00;99.90
27848;DHT22;15212;48.830;8.730;2023-05-28T02:22:57;10.90;99.90
27848;DHT22;15212;48.830;8.730;2023-05-28T02:25:25;11.00;99.90
27848;DHT22;15212;48.830;8.730;2023-05-28T02:27:54;11.00;99.90
27848;DHT22;15212;48.830;8.730;2023-05-28T02:30:22;11.00;99.90
27848;DHT22;15212;48.830;8.730;2023-05-28T02:32:50;10.90;99.90
27848;DHT22;15212;48.830;8.730;2023-05-28T02:35:21;11.00;99.90
27848;DHT22;15212;48.830;8.730;2023-05-28T02:37:50;11.00;99.90
27848;DHT22;15212;48.830;8.730;2023-05-28T02:40:18;11.10;99.90
27848;DHT22;15212;48.830;8.730;2023-05-28T02:42:47;11.20;99.90
27848;DHT22;15212;48.830;8.730;2023-05-28T02:45:15;11.30;99.90
27848;DHT22;15212;48.830;8.730;2023-05-28T02:47:43;11.30;99.90
27848;DHT22;15212;48.830;8.730;2023-05-28T02:50:12;11.30;99.90
27848;DHT22;15212;48.830;8.730;2023-05-28T02:52:40;11.30;99.90
27848;DHT22;15212;48.830;8.730;2023-05-28T02:55:08;11.40;99.90
27848;DHT22;15212;48.830;8.730;2023-05-28T02:57:37;11.30;99.90
27848;DHT22;15212;48.830;8.730;2023-05-28T03:00:07;11.30;99.90
27848;DHT22;15212;48.830;8.730;2023-05-28T03:02:36;11.20;99.90
27848;DHT22;15212;48.830;8.730;2023-05-28T03:05:04;11.10;99.90
27848;DHT22;15212;48.830;8.730;2023-05-28T03:07:34;11.00;99.90
27848;DHT22;15212;48.830;8.730;2023-05-28T03:10:03;10.90;99.90
27848;DHT22;15212;48.830;8.730;2023-05-28T03:12:32;10.70;99.90
27848;DHT22;15212;48.830;8.730;2023-05-28T03:15:00;10.70;99.90
27848;DHT22;15212;48.830;8.730;2023-05-28T03:17:28;10.70;99.90
27848;DHT22;15212;48.830;8.730;2023-05-28T03:19:57;10.70;99.90
27848;DHT22;15212;48.830;8.730;2023-05-28T03:22:25;10.70;99.90
27848;DHT22;15212;48.830;8.730;2023-05-28T03:24:54;10.70;99.90
27848;DHT22;15212;48.830;8.730;2023-05-28T03:27:23;10.70;99.90
27848;DHT22;15212;48.830;8.730;2023-05-28T03:29:52;10.60;99.90
27848;DHT22;15212;48.830;8.730;2023-05-28T03:32:20;10.70;99.90
27848;DHT22;15212;48.830;8.730;2023-05-28T03:34:48;10.60;99.90
27848;DHT22;15212;48.830;8.730;2023-05-28T03:37:17;10.60;99.90
27848;DHT22;15212;48.830;8.730;2023-05-28T03:39:46;10.50;99.90
27848;DHT22;15212;48.830;8.730;2023-05-28T03:42:14;10.40;99.90
27848;DHT22;15212;48.830;8.730;2023-05-28T03:44:42;10.40;99.90
27848;DHT22;15212;48.830;8.730;2023-05-28T03:47:11;10.40;99.90
27848;DHT22;15212;48.830;8.730;2023-05-28T03:49:40;10.40;99.90
27848;DHT22;15212;48.830;8.730;2023-05-28T03:52:09;10.40;99.90
27848;DHT22;15212;48.830;8.730;2023-05-28T03:54:37;10.40;99.90
27848;DHT22;15212;48.830;8.730;2023-05-28T03:57:06;10.40;99.90
27848;DHT22;15212;48.830;8.730;2023-05-28T03:59:34;10.40;99.90
27848;DHT22;15212;48.830;8.730;2023-05-28T04:02:04;10.40;99.90
27848;DHT22;15212;48.830;8.730;2023-05-28T04:04:32;10.40;99.90
27848;DHT22;15212;48.830;8.730;2023-05-28T04:07:01;10.50;99.90
27848;DHT22;15212;48.830;8.730;2023-05-28T04:09:29;10.50;99.90
27848;DHT22;15212;48.830;8.730;2023-05-28T04:11:57;10.60;99.90
27848;DHT22;15212;48.830;8.730;2023-05-28T04:14:27;10.70;99.90
27848;DHT22;15212;48.830;8.730;2023-05-28T04:16:55;10.80;99.90
27848;DHT22;15212;48.830;8.730;2023-05-28T04:19:24;10.80;99.90
27848;DHT22;15212;48.830;8.730;2023-05-28T04:21:52;11.00;99.90
27848;DHT22;15212;48.830;8.730;2023-05-28T04:24:21;11.10;99.90
27848;DHT22;15212;48.830;8.730;2023-05-28T04:26:49;11.10;99.90
27848;DHT22;15212;48.830;8.730;2023-05-28T04:29:17;11.10;99.90
27848;DHT22;15212;48.830;8.730;2023-05-28T04:31:47;11.30;99.90
27848;DHT22;15212;48.830;8.730;2023-05-28T04:34:17;11.30;99.90
27848;DHT22;15212;48.830;8.730;2023-05-28T04:36:46;11.40;99.90
27848;DHT22;15212;48.830;8.730;2023-05-28T04:39:14;11.40;99.90
27848;DHT22;15212;48.830;8.730;2023-05-28T04:41:43;11.40;99.90
27848;DHT22;15212;48.830;8.730;2023-05-28T04:44:12;11.50;99.90
27848;DHT22;15212;48.830;8.730;2023-05-28T04:46:42;11.50;99.90
27848;DHT22;15212;48.830;8.730;2023-05-28T04:49:12;11.60;99.90
27848;DHT22;15212;48.830;8.730;2023-05-28T04:51:40;11.70;99.90
27848;DHT22;15212;48.830;8.730;2023-05-28T04:54:09;11.80;99.90
27848;DHT22;15212;48.830;8.730;2023-05-28T04:56:38;11.90;99.90
27848;DHT22;15212;48.830;8.730;2023-05-28T04:59:07;12.00;99.90
27848;DHT22;15212;48.830;8.730;2023-05-28T05:01:36;12.10;99.90
27848;DHT22;15212;48.830;8.730;2023-05-28T05:04:06;12.20;99.90
27848;DHT22;15212;48.830;8.730;2023-05-28T05:06:35;12.40;99.90
27848;DHT22;15212;48.830;8.730;2023-05-28T05:09:04;12.60;99.90
27848;DHT22;15212;48.830;8.730;2023-05-28T05:11:33;12.80;99.90
27848;DHT22;15212;48.830;8.730;2023-05-28T05:14:02;12.90;99.90
27848;DHT22;15212;48.830;8.730;2023-05-28T05:16:30;13.00;99.90
27848;DHT22;15212;48.830;8.730;2023-05-28T05:18:59;13.00;99.90
27848;DHT22;15212;48.830;8.730;2023-05-28T05:21:27;13.10;99.90
27848;DHT22;15212;48.830;8.730;2023-05-28T05:23:55;13.20;99.90
27848;DHT22;15212;48.830;8.730;2023-05-28T05:26:24;13.40;99.90
27848;DHT22;15212;48.830;8.730;2023-05-28T05:28:52;13.50;99.90
27848;DHT22;15212;48.830;8.730;2023-05-28T05:31:21;13.60;99.90
27848;DHT22;15212;48.830;8.730;2023-05-28T05:33:49;13.80;99.90
27848;DHT22;15212;48.830;8.730;2023-05-28T05:36:17;13.90;99.90
27848;DHT22;15212;48.830;8.730;2023-05-28T05:38:46;14.00;99.90
27848;DHT22;15212;48.830;8.730;2023-05-28T05:41:14;14.10;99.90
27848;DHT22;15212;48.830;8.730;2023-05-28T05:43:43;14.30;99.90
27848;DHT22;15212;48.830;8.730;2023-05-28T05:46:11;14.40;99.90
27848;DHT22;15212;48.830;8.730;2023-05-28T05:48:40;14.50;99.90
27848;DHT22;15212;48.830;8.730;2023-05-28T05:51:08;14.70;99.90
27848;DHT22;15212;48.830;8.730;2023-05-28T05:53:41;14.90;99.90
27848;DHT22;15212;48.830;8.730;2023-05-28T05:56:09;15.20;99.90
27848;DHT22;15212;48.830;8.730;2023-05-28T05:58:38;15.70;99.90
27848;DHT22;15212;48.830;8.730;2023-05-28T06:01:08;16.30;99.90
27848;DHT22;15212;48.830;8.730;2023-05-28T06:03:36;17.10;99.90
27848;DHT22;15212;48.830;8.730;2023-05-28T06:06:05;18.10;99.90
27848;DHT22;15212;48.830;8.730;2023-05-28T06:08:33;19.30;99.90
27848;DHT22;15212;48.830;8.730;2023-05-28T06:11:03;20.20;99.90
27848;DHT22;15212;48.830;8.730;2023-05-28T06:13:31;21.00;99.90
27848;DHT22;15212;48.830;8.730;2023-05-28T06:16:02;21.80;99.90
27848;DHT22;15212;48.830;8.730;2023-05-28T06:18:31;22.50;99.50
27848;DHT22;15212;48.830;8.730;2023-05-28T06:20:59;22.90;98.40
27848;DHT22;15212;48.830;8.730;2023-05-28T06:23:27;23.50;96.30
27848;DHT22;15212;48.830;8.730;2023-05-28T06:25:56;23.80;95.00
27848;DHT22;15212;48.830;8.730;2023-05-28T06:28:27;24.20;92.40
27848;DHT22;15212;48.830;8.730;2023-05-28T06:30:55;24.50;90.60
27848;DHT22;15212;48.830;8.730;2023-05-28T06:33:25;24.50;89.50
27848;DHT22;15212;48.830;8.730;2023-05-28T06:35:53;24.40;87.90
27848;DHT22;15212;48.830;8.730;2023-05-28T06:38:22;24.40;87.80
27848;DHT22;15212;48.830;8.730;2023-05-28T06:40:50;24.40;87.20
27848;DHT22;15212;48.830;8.730;2023-05-28T06:43:18;24.50;87.60
27848;DHT22;15212;48.830;8.730;2023-05-28T06:45:47;24.50;89.80
27848;DHT22;15212;48.830;8.730;2023-05-28T06:48:15;24.80;88.90
27848;DHT22;15212;48.830;8.730;2023-05-28T06:50:43;25.00;86.40
27848;DHT22;15212;48.830;8.730;2023-05-28T06:53:12;24.90;85.60
27848;DHT22;15212;48.830;8.730;2023-05-28T06:55:40;24.80;86.70
27848;DHT22;15212;48.830;8.730;2023-05-28T06:58:09;24.90;84.70
27848;DHT22;15212;48.830;8.730;2023-05-28T07:00:37;24.80;86.10
27848;DHT22;15212;48.830;8.730;2023-05-28T07:03:05;24.80;87.00
27848;DHT22;15212;48.830;8.730;2023-05-28T07:05:35;25.00;87.70
27848;DHT22;15212;48.830;8.730;2023-05-28T07:08:03;25.00;89.60
27848;DHT22;15212;48.830;8.730;2023-05-28T07:10:32;25.20;89.30
27848;DHT22;15212;48.830;8.730;2023-05-28T07:13:00;25.20;86.70
27848;DHT22;15212;48.830;8.730;2023-05-28T07:15:28;25.10;86.20
27848;DHT22;15212;48.830;8.730;2023-05-28T07:17:57;24.80;85.70
27848;DHT22;15212;48.830;8.730;2023-05-28T07:20:27;24.60;86.30
27848;DHT22;15212;48.830;8.730;2023-05-28T07:22:55;24.60;87.50
27848;DHT22;15212;48.830;8.730;2023-05-28T07:25:24;24.70;87.90
27848;DHT22;15212;48.830;8.730;2023-05-28T07:27:52;24.70;86.90
27848;DHT22;15212;48.830;8.730;2023-05-28T07:30:20;24.60;88.00
27848;DHT22;15212;48.830;8.730;2023-05-28T07:32:49;24.70;88.70
27848;DHT22;15212;48.830;8.730;2023-05-28T07:35:17;24.60;87.80
27848;DHT22;15212;48.830;8.730;2023-05-28T07:37:46;24.60;88.60
27848;DHT22;15212;48.830;8.730;2023-05-28T07:40:14;24.60;89.50
27848;DHT22;15212;48.830;8.730;2023-05-28T07:42:42;24.40;90.80
27848;DHT22;15212;48.830;8.730;2023-05-28T07:45:11;24.10;90.30
27848;DHT22;15212;48.830;8.730;2023-05-28T07:47:39;23.80;90.70
27848;DHT22;15212;48.830;8.730;2023-05-28T07:50:08;23.50;90.70
27848;DHT22;15212;48.830;8.730;2023-05-28T07:52:37;22.90;92.10
27848;DHT22;15212;48.830;8.730;2023-05-28T07:55:08;22.60;93.60
27848;DHT22;15212;48.830;8.730;2023-05-28T07:57:36;22.40;93.20
27848;DHT22;15212;48.830;8.730;2023-05-28T08:00:05;22.20;92.70
27848;DHT22;15212;48.830;8.730;2023-05-28T08:02:36;22.00;93.10
27848;DHT22;15212;48.830;8.730;2023-05-28T08:05:04;21.80;94.20
27848;DHT22;15212;48.830;8.730;2023-05-28T08:07:33;21.70;93.30
27848;DHT22;15212;48.830;8.730;2023-05-28T08:10:03;21.60;93.90
27848;DHT22;15212;48.830;8.730;2023-05-28T08:12:31;21.50;93.70
27848;DHT22;15212;48.830;8.730;2023-05-28T08:15:00;21.50;94.60
27848;DHT22;15212;48.830;8.730;2023-05-28T08:17:30;21.50;93.70
27848;DHT22;15212;48.830;8.730;2023-05-28T08:19:58;21.50;93.70
27848;DHT22;15212;48.830;8.730;2023-05-28T08:22:27;21.50;93.50
27848;DHT22;15212;48.830;8.730;2023-05-28T08:24:55;21.50;94.20
27848;DHT22;15212;48.830;8.730;2023-05-28T08:27:24;21.50;95.40
27848;DHT22;15212;48.830;8.730;2023-05-28T08:29:52;21.60;94.70
27848;DHT22;15212;48.830;8.730;2023-05-28T08:32:21;21.70;95.10
27848;DHT22;15212;48.830;8.730;2023-05-28T08:34:49;21.90;94.70
27848;DHT22;15212;48.830;8.730;2023-05-28T08:37:17;21.90;94.30
27848;DHT22;15212;48.830;8.730;2023-05-28T08:39:46;21.70;94.80
27848;DHT22;15212;48.830;8.730;2023-05-28T08:42:14;21.70;94.20
27848;DHT22;15212;48.830;8.730;2023-05-28T08:44:43;21.70;95.70
27848;DHT22;15212;48.830;8.730;2023-05-28T08:47:13;21.70;96.30
27848;DHT22;15212;48.830;8.730;2023-05-28T08:49:51;21.70;94.50
27848;DHT22;15212;48.830;8.730;2023-05-28T08:52:20;21.70;95.60
27848;DHT22;15212;48.830;8.730;2023-05-28T08:54:50;21.80;96.20
27848;DHT22;15212;48.830;8.730;2023-05-28T08:57:19;21.80;94.10
27848;DHT22;15212;48.830;8.730;2023-05-28T08:59:48;21.80;93.40
27848;DHT22;15212;48.830;8.730;2023-05-28T09:02:17;21.70;93.10
27848;DHT22;15212;48.830;8.730;2023-05-28T09:04:47;21.80;94.40
27848;DHT22;15212;48.830;8.730;2023-05-28T09:07:16;21.90;94.20
27848;DHT22;15212;48.830;8.730;2023-05-28T09:09:45;22.00;94.00
27848;DHT22;15212;48.830;8.730;2023-05-28T09:12:19;22.20;95.80
27848;DHT22;15212;48.830;8.730;2023-05-28T09:14:45;22.40;94.70
27848;DHT22;15212;48.830;8.730;2023-05-28T09:17:15;22.60;94.50
27848;DHT22;15212;48.830;8.730;2023-05-28T09:19:51;22.60;92.70
27848;DHT22;15212;48.830;8.730;2023-05-28T09:22:19;22.50;93.70
27848;DHT22;15212;48.830;8.730;2023-05-28T09:24:49;22.50;93.40
27848;DHT22;15212;48.830;8.730;2023-05-28T09:27:19;22.40;93.20
27848;DHT22;15212;48.830;8.730;2023-05-28T09:29:49;22.20;94.70
27848;DHT22;15212;48.830;8.730;2023-05-28T09:32:19;22.20;94.90
27848;DHT22;15212;48.830;8.730;2023-05-28T09:34:49;22.10;94.40
27848;DHT22;15212;48.830;8.730;2023-05-28T09:37:18;22.20;94.90
27848;DHT22;15212;48.830;8.730;2023-05-28T09:39:46;22.40;96.30
27848;DHT22;15212;48.830;8.730;2023-05-28T09:42:14;22.60;95.00
27848;DHT22;15212;48.830;8.730;2023-05-28T09:44:43;22.80;93.30
27848;DHT22;15212;48.830;8.730;2023-05-28T09:47:17;22.80;92.80
27848;DHT22;15212;48.830;8.730;2023-05-28T09:49:48;22.80;92.80
27848;DHT22;15212;48.830;8.730;2023-05-28T09:52:20;22.80;93.60
27848;DHT22;15212;48.830;8.730;2023-05-28T09:54:51;22.90;93.10
27848;DHT22;15212;48.830;8.730;2023-05-28T09:57:29;22.80;92.30
27848;DHT22;15212;48.830;8.730;2023-05-28T09:59:59;22.80;93.20
27848;DHT22;15212;48.830;8.730;2023-05-28T10:02:54;22.90;94.30
27848;DHT22;15212;48.830;8.730;2023-05-28T10:05:28;23.10;93.30
27848;DHT22;15212;48.830;8.730;2023-05-28T10:08:00;22.90;91.20
27848;DHT22;15212;48.830;8.730;2023-05-28T10:10:29;22.90;92.70
27848;DHT22;15212;48.830;8.730;2023-05-28T10:12:58;22.90;93.80
27848;DHT22;15212;48.830;8.730;2023-05-28T10:15:28;22.80;94.00
27848;DHT22;15212;48.830;8.730;2023-05-28T10:17:57;22.90;92.90
27848;DHT22;15212;48.830;8.730;2023-05-28T10:20:27;22.70;92.00
27848;DHT22;15212;48.830;8.730;2023-05-28T10:22:55;22.60;91.40
27848;DHT22;15212;48.830;8.730;2023-05-28T10:25:24;22.60;92.20
27848;DHT22;15212;48.830;8.730;2023-05-28T10:27:58;22.60;95.30
27848;DHT22;15212;48.830;8.730;2023-05-28T10:30:33;22.60;92.90
27848;DHT22;15212;48.830;8.730;2023-05-28T10:33:11;22.60;93.50
27848;DHT22;15212;48.830;8.730;2023-05-28T10:35:55;22.80;93.50
27848;DHT22;15212;48.830;8.730;2023-05-28T10:38:24;22.90;93.20
27848;DHT22;15212;48.830;8.730;2023-05-28T10:41:04;22.80;91.40
27848;DHT22;15212;48.830;8.730;2023-05-28T10:43:43;22.80;93.80
27848;DHT22;15212;48.830;8.730;2023-05-28T10:46:35;22.80;93.50
27848;DHT22;15212;48.830;8.730;2023-05-28T10:49:16;22.90;92.00
27848;DHT22;15212;48.830;8.730;2023-05-28T10:51:51;22.90;91.20
27848;DHT22;15212;48.830;8.730;2023-05-28T10:57:16;22.80;92.10
27848;DHT22;15212;48.830;8.730;2023-05-28T10:59:57;22.50;92.60
27848;DHT22;15212;48.830;8.730;2023-05-28T11:02:34;22.60;93.70
27848;DHT22;15212;48.830;8.730;2023-05-28T11:05:04;22.60;92.00
27848;DHT22;15212;48.830;8.730;2023-05-28T11:07:35;22.60;93.50
27848;DHT22;15212;48.830;8.730;2023-05-28T11:10:09;22.60;93.30
27848;DHT22;15212;48.830;8.730;2023-05-28T11:12:40;22.50;94.50
27848;DHT22;15212;48.830;8.730;2023-05-28T11:15:11;22.50;93.40
27848;DHT22;15212;48.830;8.730;2023-05-28T11:17:41;22.50;92.10
27848;DHT22;15212;48.830;8.730;2023-05-28T11:20:19;22.50;92.80
27848;DHT22;15212;48.830;8.730;2023-05-28T11:22:54;22.50;91.40
27848;DHT22;15212;48.830;8.730;2023-05-28T11:25:23;22.60;93.80
27848;DHT22;15212;48.830;8.730;2023-05-28T11:27:55;22.50;92.60
27848;DHT22;15212;48.830;8.730;2023-05-28T11:30:25;22.50;94.80
27848;DHT22;15212;48.830;8.730;2023-05-28T11:32:54;22.50;93.40
27848;DHT22;15212;48.830;8.730;2023-05-28T11:35:23;22.50;96.70
27848;DHT22;15212;48.830;8.730;2023-05-28T11:37:53;22.40;93.70
27848;DHT22;15212;48.830;8.730;2023-05-28T11:40:32;22.50;95.40
27848;DHT22;15212;48.830;8.730;2023-05-28T11:43:01;22.40;93.20
27848;DHT22;15212;48.830;8.730;2023-05-28T11:45:38;22.40;92.20
27848;DHT22;15212;48.830;8.730;2023-05-28T11:48:13;22.30;92.10
27848;DHT22;15212;48.830;8.730;2023-05-28T11:50:42;22.40;91.50
27848;DHT22;15212;48.830;8.730;2023-05-28T11:53:10;22.50;94.40
27848;DHT22;15212;48.830;8.730;2023-05-28T11:55:39;22.50;94.70
27848;DHT22;15212;48.830;8.730;2023-05-28T11:58:07;22.60;92.60
27848;DHT22;15212;48.830;8.730;2023-05-28T12:00:36;22.60;90.50
27848;DHT22;15212;48.830;8.730;2023-05-28T12:03:05;22.60;90.00
27848;DHT22;15212;48.830;8.730;2023-05-28T12:05:37;22.60;91.00
27848;DHT22;15212;48.830;8.730;2023-05-28T12:08:06;22.60;92.50
27848;DHT22;15212;48.830;8.730;2023-05-28T12:10:34;22.80;92.80
27848;DHT22;15212;48.830;8.730;2023-05-28T12:13:03;22.80;90.10
27848;DHT22;15212;48.830;8.730;2023-05-28T12:15:32;22.90;89.20
27848;DHT22;15212;48.830;8.730;2023-05-28T12:18:01;22.90;93.00
27848;DHT22;15212;48.830;8.730;2023-05-28T12:20:41;23.00;93.00
27848;DHT22;15212;48.830;8.730;2023-05-28T12:23:12;23.00;93.00
27848;DHT22;15212;48.830;8.730;2023-05-28T12:25:48;22.90;94.40
27848;DHT22;15212;48.830;8.730;2023-05-28T12:28:21;23.00;93.10
27848;DHT22;15212;48.830;8.730;2023-05-28T12:30:52;23.10;93.20
27848;DHT22;15212;48.830;8.730;2023-05-28T12:33:22;23.00;92.50
27848;DHT22;15212;48.830;8.730;2023-05-28T12:35:50;23.00;92.40
27848;DHT22;15212;48.830;8.730;2023-05-28T12:38:19;23.00;94.70
27848;DHT22;15212;48.830;8.730;2023-05-28T12:40:47;23.10;93.20
27848;DHT22;15212;48.830;8.730;2023-05-28T12:43:16;23.10;93.20
27848;DHT22;15212;48.830;8.730;2023-05-28T12:45:44;23.30;93.60
27848;DHT22;15212;48.830;8.730;2023-05-28T12:48:13;23.40;94.10
27848;DHT22;15212;48.830;8.730;2023-05-28T12:50:42;23.50;92.60
27848;DHT22;15212;48.830;8.730;2023-05-28T12:53:10;23.50;92.60
27848;DHT22;15212;48.830;8.730;2023-05-28T12:55:38;23.40;92.20
27848;DHT22;15212;48.830;8.730;2023-05-28T12:58:07;23.30;93.80
27848;DHT22;15212;48.830;8.730;2023-05-28T13:00:35;23.40;91.90
27848;DHT22;15212;48.830;8.730;2023-05-28T13:03:04;23.40;93.60
27848;DHT22;15212;48.830;8.730;2023-05-28T13:05:34;23.40;91.90
27848;DHT22;15212;48.830;8.730;2023-05-28T13:08:02;23.50;91.70
27848;DHT22;15212;48.830;8.730;2023-05-28T13:10:30;23.60;91.20
27848;DHT22;15212;48.830;8.730;2023-05-28T13:12:59;23.60;91.20
27848;DHT22;15212;48.830;8.730;2023-05-28T13:15:27;23.60;90.40
27848;DHT22;15212;48.830;8.730;2023-05-28T13:17:55;23.60;90.60
27848;DHT22;15212;48.830;8.730;2023-05-28T13:20:24;23.40;91.10
27848;DHT22;15212;48.830;8.730;2023-05-28T13:22:52;23.30;91.30
27848;DHT22;15212;48.830;8.730;2023-05-28T13:25:22;23.40;92.10
27848;DHT22;15212;48.830;8.730;2023-05-28T13:27:50;23.40;91.70
27848;DHT22;15212;48.830;8.730;2023-05-28T13:30:19;23.40;91.40
27848;DHT22;15212;48.830;8.730;2023-05-28T13:32:47;23.40;92.10
27848;DHT22;15212;48.830;8.730;2023-05-28T13:35:16;23.40;90.30
27848;DHT22;15212;48.830;8.730;2023-05-28T13:37:46;23.40;90.10
27848;DHT22;15212;48.830;8.730;2023-05-28T13:40:15;23.30;91.20
27848;DHT22;15212;48.830;8.730;2023-05-28T13:42:44;23.50;91.00
27848;DHT22;15212;48.830;8.730;2023-05-28T13:45:15;23.70;90.30
27848;DHT22;15212;48.830;8.730;2023-05-28T13:47:43;23.80;92.40
27848;DHT22;15212;48.830;8.730;2023-05-28T13:50:12;23.80;88.00
27848;DHT22;15212;48.830;8.730;2023-05-28T13:52:43;23.70;90.00
27848;DHT22;15212;48.830;8.730;2023-05-28T13:55:11;23.80;89.50
27848;DHT22;15212;48.830;8.730;2023-05-28T13:57:40;23.70;88.70
27848;DHT22;15212;48.830;8.730;2023-05-28T14:00:09;23.70;90.60
27848;DHT22;15212;48.830;8.730;2023-05-28T14:02:38;23.70;90.30
27848;DHT22;15212;48.830;8.730;2023-05-28T14:05:07;23.80;90.80
27848;DHT22;15212;48.830;8.730;2023-05-28T14:07:35;23.80;89.10
27848;DHT22;15212;48.830;8.730;2023-05-28T14:10:04;23.80;89.50
27848;DHT22;15212;48.830;8.730;2023-05-28T14:12:32;23.80;90.10
27848;DHT22;15212;48.830;8.730;2023-05-28T14:15:01;23.90;89.40
27848;DHT22;15212;48.830;8.730;2023-05-28T14:17:29;24.00;88.30
27848;DHT22;15212;48.830;8.730;2023-05-28T14:19:58;23.90;87.30
27848;DHT22;15212;48.830;8.730;2023-05-28T14:22:26;23.80;88.80
27848;DHT22;15212;48.830;8.730;2023-05-28T14:24:55;23.80;89.00
27848;DHT22;15212;48.830;8.730;2023-05-28T14:27:23;23.80;89.70
27848;DHT22;15212;48.830;8.730;2023-05-28T14:29:51;23.70;87.80
27848;DHT22;15212;48.830;8.730;2023-05-28T14:32:20;23.70;87.60
27848;DHT22;15212;48.830;8.730;2023-05-28T14:34:48;23.60;90.00
27848;DHT22;15212;48.830;8.730;2023-05-28T14:37:16;23.70;88.30
27848;DHT22;15212;48.830;8.730;2023-05-28T14:39:45;23.70;91.40
27848;DHT22;15212;48.830;8.730;2023-05-28T14:42:13;23.80;90.20
27848;DHT22;15212;48.830;8.730;2023-05-28T14:44:42;23.70;87.10
27848;DHT22;15212;48.830;8.730;2023-05-28T14:47:10;23.80;87.40
27848;DHT22;15212;48.830;8.730;2023-05-28T14:49:39;23.80;88.50
27848;DHT22;15212;48.830;8.730;2023-05-28T14:52:25;23.70;87.60
27848;DHT22;15212;48.830;8.730;2023-05-28T14:54:58;23.80;90.10
27848;DHT22;15212;48.830;8.730;2023-05-28T14:57:27;23.70;90.30
27848;DHT22;15212;48.830;8.730;2023-05-28T15:00:01;23.80;91.40
27848;DHT22;15212;48.830;8.730;2023-05-28T15:02:33;23.80;88.10
27848;DHT22;15212;48.830;8.730;2023-05-28T15:05:02;23.80;87.00
27848;DHT22;15212;48.830;8.730;2023-05-28T15:07:31;23.90;89.50
27848;DHT22;15212;48.830;8.730;2023-05-28T15:10:00;23.80;89.50
27848;DHT22;15212;48.830;8.730;2023-05-28T15:12:30;23.80;87.80
27848;DHT22;15212;48.830;8.730;2023-05-28T15:14:58;23.60;86.30
27848;DHT22;15212;48.830;8.730;2023-05-28T15:17:27;23.60;87.80
27848;DHT22;15212;48.830;8.730;2023-05-28T15:19:55;23.60;88.70
27848;DHT22;15212;48.830;8.730;2023-05-28T15:22:24;23.60;87.20
27848;DHT22;15212;48.830;8.730;2023-05-28T15:24:52;23.70;85.70
27848;DHT22;15212;48.830;8.730;2023-05-28T15:27:21;23.60;86.50
27848;DHT22;15212;48.830;8.730;2023-05-28T15:29:50;23.70;87.10
27848;DHT22;15212;48.830;8.730;2023-05-28T15:32:18;23.80;88.40
27848;DHT22;15212;48.830;8.730;2023-05-28T15:34:47;23.80;87.20
27848;DHT22;15212;48.830;8.730;2023-05-28T15:37:16;23.80;87.70
27848;DHT22;15212;48.830;8.730;2023-05-28T15:39:44;23.80;85.00
27848;DHT22;15212;48.830;8.730;2023-05-28T15:42:13;23.80;83.80
27848;DHT22;15212;48.830;8.730;2023-05-28T15:44:43;23.60;83.80
27848;DHT22;15212;48.830;8.730;2023-05-28T15:47:12;23.40;85.00